createdAt,value
2018-07-20T00:01:51.119Z,101423.29
2018-07-20T00:04:18.319Z,101419.80
2018-07-20T00:06:45.367Z,101421.25
2018-07-20T00:09:12.733Z,101423.68
2018-07-20T00:11:39.748Z,101433.62
2018-07-20T00:14:06.774Z,101432.20
2018-07-20T00:16:34.137Z,101425.33
2018-07-20T00:19:01.175Z,101430.18
2018-07-20T00:21:28.201Z,101435.03
2018-07-20T00:23:55.656Z,101428.53
2018-07-20T00:26:22.673Z,101427.95
2018-07-20T00:28:49.738Z,101427.89
2018-07-20T00:31:17.073Z,101421.02
2018-07-20T00:33:44.086Z,101424.16
2018-07-20T00:36:11.100Z,101424.44
2018-07-20T00:38:38.550Z,101404.50
2018-07-20T00:41:05.593Z,101418.51
2018-07-20T00:43:32.592Z,101398.95
2018-07-20T00:46:00.008Z,101412.78
2018-07-20T00:48:27.052Z,101423.92
2018-07-20T00:50:54.095Z,101412.66
2018-07-20T00:53:21.466Z,101417.84
2018-07-20T00:55:48.440Z,101412.70
2018-07-20T00:58:15.447Z,101409.30
2018-07-20T01:00:42.687Z,101405.85
2018-07-20T01:03:09.810Z,101411.03
2018-07-20T01:05:37.029Z,101404.68
2018-07-20T01:08:04.386Z,101402.63
2018-07-20T01:10:31.371Z,101405.09
2018-07-20T01:12:58.614Z,101404.41
2018-07-20T01:15:26.093Z,101403.67
2018-07-20T01:17:53.187Z,101401.73
2018-07-20T01:20:20.249Z,101387.91
2018-07-20T01:22:47.622Z,101400.55
2018-07-20T01:25:14.713Z,101403.05
2018-07-20T01:27:41.698Z,101407.02
2018-07-20T01:30:09.272Z,101401.39
2018-07-20T01:32:36.321Z,101396.24
2018-07-20T01:35:03.349Z,101377.72
2018-07-20T01:37:30.528Z,101395.79
2018-07-20T01:39:57.642Z,101396.94
2018-07-20T01:42:24.624Z,101397.70
2018-07-20T01:44:52.086Z,101393.03
2018-07-20T01:47:19.157Z,101395.05
2018-07-20T01:49:46.174Z,101393.45
2018-07-20T01:52:13.607Z,101387.82
2018-07-20T01:54:40.695Z,101389.80
2018-07-20T01:57:07.668Z,101386.02
2018-07-20T01:59:34.978Z,101387.64
2018-07-20T02:02:02.088Z,101373.50
2018-07-20T02:04:29.104Z,101386.56
2018-07-20T02:06:56.924Z,101383.50
2018-07-20T02:09:23.940Z,101381.28
2018-07-20T02:11:50.972Z,101386.20
2018-07-20T02:14:18.388Z,101390.27
2018-07-20T02:16:45.354Z,101392.46
2018-07-20T02:19:12.399Z,101391.62
2018-07-20T02:21:39.948Z,101390.27
2018-07-20T02:24:07.588Z,101387.42
2018-07-20T02:26:34.657Z,101380.13
2018-07-20T02:29:02.152Z,101384.93
2018-07-20T02:31:29.174Z,101376.66
2018-07-20T02:33:56.821Z,101381.95
2018-07-20T02:36:24.800Z,101380.31
2018-07-20T02:38:52.383Z,101375.63
2018-07-20T02:41:19.458Z,101382.61
2018-07-20T02:43:47.023Z,101381.37
2018-07-20T02:46:13.995Z,101381.09
2018-07-20T02:48:40.985Z,101371.15
2018-07-20T02:51:08.412Z,101383.25
2018-07-20T02:53:35.412Z,101387.87
2018-07-20T02:56:02.424Z,101377.48
2018-07-20T02:58:29.896Z,101377.58
2018-07-20T03:00:56.862Z,101381.38
2018-07-20T03:03:23.897Z,101381.09
2018-07-20T03:05:51.311Z,101367.58
2018-07-20T03:08:18.413Z,101380.91
2018-07-20T03:10:45.408Z,101385.05
2018-07-20T03:13:12.885Z,101374.44
2018-07-20T03:15:39.951Z,101371.30
2018-07-20T03:18:07.048Z,101370.36
2018-07-20T03:20:34.697Z,101371.95
2018-07-20T03:23:01.752Z,101373.89
2018-07-20T03:25:28.790Z,101372.74
2018-07-20T03:27:56.137Z,101370.09
2018-07-20T03:30:23.287Z,101367.96
2018-07-20T03:32:50.317Z,101367.19
2018-07-20T03:35:17.645Z,101363.32
2018-07-20T03:37:44.658Z,101365.75
2018-07-20T03:40:11.753Z,101364.59
2018-07-20T03:42:39.260Z,101361.59
2018-07-20T03:48:04.537Z,101363.39
2018-07-20T03:50:31.655Z,101364.83
2018-07-20T03:52:58.696Z,101363.53
2018-07-20T03:55:26.199Z,101366.45
2018-07-20T03:57:53.716Z,101362.46
2018-07-20T04:00:20.798Z,101359.95
2018-07-20T04:02:48.068Z,101361.02
2018-07-20T04:05:15.198Z,101364.34
2018-07-20T04:07:42.269Z,101357.12
2018-07-20T04:10:09.904Z,101356.34
2018-07-20T04:12:36.949Z,101363.66
2018-07-20T04:15:03.967Z,101364.23
2018-07-20T04:17:40.794Z,101361.57
2018-07-20T04:20:07.870Z,101363.84
2018-07-20T04:22:35.155Z,101370.20
2018-07-20T04:25:02.291Z,101363.98
2018-07-20T04:27:29.272Z,101366.59
2018-07-20T04:29:56.474Z,101365.66
2018-07-20T04:32:23.745Z,101370.64
2018-07-20T04:34:50.767Z,101369.22
2018-07-20T04:37:17.916Z,101362.47
2018-07-20T04:39:45.263Z,101362.37
2018-07-20T04:42:12.297Z,101361.42
2018-07-20T04:44:39.498Z,101364.56
2018-07-20T04:47:06.761Z,101366.37
2018-07-20T04:49:34.021Z,101363.05
2018-07-20T04:52:01.245Z,101355.64
2018-07-20T04:54:28.489Z,101357.38
2018-07-20T04:56:55.530Z,101357.64
2018-07-20T04:59:23.132Z,101365.56
2018-07-20T05:01:50.415Z,101356.27
2018-07-20T05:04:17.438Z,101357.55
2018-07-20T05:06:44.701Z,101350.12
2018-07-20T05:09:11.865Z,101355.63
2018-07-20T05:11:39.407Z,101350.09
2018-07-20T05:14:06.679Z,101347.09
2018-07-20T05:16:33.967Z,101340.82
2018-07-20T05:19:00.969Z,101353.55
2018-07-20T05:21:28.011Z,101352.44
2018-07-20T05:23:55.692Z,101346.52
2018-07-20T05:26:22.697Z,101349.11
2018-07-20T05:28:49.845Z,101352.72
2018-07-20T05:31:17.104Z,101354.97
2018-07-20T05:33:44.184Z,101344.96
2018-07-20T05:36:11.800Z,101342.30
2018-07-20T05:38:39.051Z,101342.47
2018-07-20T05:41:06.112Z,101355.12
2018-07-20T05:43:33.341Z,101352.23
2018-07-20T05:46:00.517Z,101348.33
2018-07-20T05:48:27.513Z,101348.01
2018-07-20T05:50:54.641Z,101351.28
2018-07-20T05:53:21.778Z,101345.84
2018-07-20T05:55:48.752Z,101338.55
2018-07-20T05:58:15.987Z,101345.29
2018-07-20T06:00:43.430Z,101342.91
2018-07-20T06:03:10.488Z,101342.80
2018-07-20T06:05:37.795Z,101345.21
2018-07-20T06:08:05.034Z,101339.11
2018-07-20T06:10:32.080Z,101341.19
2018-07-20T06:12:59.616Z,101336.98
2018-07-20T06:15:26.846Z,101334.09
2018-07-20T06:17:53.833Z,101338.89
2018-07-20T06:20:21.065Z,101335.52
2018-07-20T06:22:48.303Z,101337.95
2018-07-20T06:25:15.333Z,101340.52
2018-07-20T06:27:42.501Z,101337.52
2018-07-20T06:30:09.614Z,101338.23
2018-07-20T06:32:36.907Z,101334.63
2018-07-20T06:35:04.022Z,101335.70
2018-07-20T06:37:31.234Z,101332.80
2018-07-20T06:39:58.867Z,101329.41
2018-07-20T06:42:26.111Z,101330.96
2018-07-20T06:44:53.356Z,101332.52
2018-07-20T06:47:20.412Z,101336.77
2018-07-20T06:49:47.562Z,101329.80
2018-07-20T06:52:14.745Z,101329.13
2018-07-20T06:54:41.669Z,101331.54
2018-07-20T06:57:09.007Z,101331.22
2018-07-20T06:59:36.245Z,101331.37
2018-07-20T07:02:03.321Z,101329.48
2018-07-20T07:04:30.496Z,101324.05
2018-07-20T07:06:57.733Z,101327.28
2018-07-20T07:09:24.842Z,101326.27
2018-07-20T07:12:22.768Z,101324.38
2018-07-20T07:14:49.946Z,101324.52
2018-07-20T07:17:17.063Z,101324.00
2018-07-20T07:19:44.398Z,101324.67
2018-07-20T07:22:11.413Z,101318.58
2018-07-20T07:24:38.447Z,101316.33
2018-07-20T07:27:05.817Z,101321.76
2018-07-20T07:29:32.837Z,101323.46
2018-07-20T07:31:59.935Z,101315.59
2018-07-20T07:34:27.341Z,101319.34
2018-07-20T07:36:54.358Z,101325.66
2018-07-20T07:39:21.397Z,101323.42
2018-07-20T07:41:48.854Z,101318.26
2018-07-20T07:44:15.833Z,101324.39
2018-07-20T07:46:42.823Z,101327.95
2018-07-20T07:49:10.191Z,101322.31
2018-07-20T07:51:37.282Z,101327.96
2018-07-20T07:54:04.522Z,101329.80
2018-07-20T07:56:31.864Z,101332.36
2018-07-20T07:58:59.751Z,101334.59
2018-07-20T08:01:26.774Z,101332.00
2018-07-20T08:03:54.040Z,101335.42
2018-07-20T08:06:21.267Z,101340.03
2018-07-20T08:08:48.244Z,101331.97
2018-07-20T08:11:15.392Z,101331.94
2018-07-20T08:13:42.796Z,101330.03
2018-07-20T08:16:10.081Z,101334.78
2018-07-20T08:18:37.232Z,101328.80
2018-07-20T08:21:04.495Z,101327.39
2018-07-20T08:23:31.479Z,101329.08
2018-07-20T08:26:05.295Z,101330.73
2018-07-20T08:28:32.645Z,101326.27
2018-07-20T08:30:59.880Z,101328.45
2018-07-20T08:33:27.167Z,101324.70
2018-07-20T08:35:54.170Z,101332.19
2018-07-20T08:38:21.500Z,101338.30
2018-07-20T08:40:48.708Z,101336.06
2018-07-20T08:43:15.726Z,101338.75
2018-07-20T08:45:42.810Z,101339.92
2018-07-20T08:48:10.095Z,101342.94
2018-07-20T08:50:37.254Z,101341.88
2018-07-20T08:53:04.534Z,101336.39
2018-07-20T08:55:31.830Z,101332.55
2018-07-20T08:57:58.891Z,101323.77
2018-07-20T09:00:26.035Z,101332.81
2018-07-20T09:02:53.299Z,101331.93
2018-07-20T09:05:20.313Z,101331.22
2018-07-20T09:07:47.419Z,101333.75
2018-07-20T09:10:14.538Z,101330.26
2018-07-20T09:12:41.499Z,101341.12
2018-07-20T09:15:08.739Z,101340.72
2018-07-20T09:17:36.062Z,101336.68
2018-07-20T09:20:03.106Z,101336.78
2018-07-20T09:22:30.266Z,101333.64
2018-07-20T09:24:57.459Z,101324.11
2018-07-20T09:27:24.461Z,101329.02
2018-07-20T09:29:51.724Z,101325.55
2018-07-20T09:32:18.915Z,101321.53
2018-07-20T09:34:45.926Z,101324.05
2018-07-20T09:37:13.071Z,101320.66
2018-07-20T09:39:40.352Z,101320.56
2018-07-20T09:42:07.417Z,101314.81
2018-07-20T09:44:34.638Z,101324.89
2018-07-20T09:47:01.789Z,101315.37
2018-07-20T09:49:28.768Z,101307.84
2018-07-20T09:51:55.949Z,101309.58
2018-07-20T09:54:23.139Z,101307.64
2018-07-20T09:56:50.196Z,101298.72
2018-07-20T09:59:17.354Z,101304.22
2018-07-20T10:01:45.031Z,101301.55
2018-07-20T10:04:12.042Z,101293.72
2018-07-20T10:06:39.318Z,101292.03
2018-07-20T10:09:08.033Z,101294.25
2018-07-20T10:11:35.191Z,101289.50
2018-07-20T10:14:02.421Z,101286.27
2018-07-20T10:16:29.678Z,101286.30
2018-07-20T10:18:56.961Z,101286.25
2018-07-20T10:21:24.243Z,101280.85
2018-07-20T10:23:51.483Z,101280.41
2018-07-20T10:26:18.484Z,101279.80
2018-07-20T10:28:45.669Z,101274.58
2018-07-20T10:31:13.769Z,101279.01
2018-07-20T10:33:40.831Z,101274.11
2018-07-20T10:36:08.120Z,101277.66
2018-07-20T10:38:35.493Z,101271.77
2018-07-20T10:41:02.460Z,101278.93
2018-07-20T10:46:27.496Z,101266.38
2018-07-20T10:48:54.732Z,101272.59
2018-07-20T10:51:22.383Z,101269.86
2018-07-20T10:53:50.197Z,101267.28
2018-07-20T10:56:18.174Z,101262.78
2018-07-20T10:58:45.788Z,101263.03
2018-07-20T11:01:13.682Z,101261.91
2018-07-20T11:03:41.495Z,101262.73
2018-07-20T11:06:09.095Z,101264.74
2018-07-20T11:08:36.862Z,101261.30
2018-07-20T11:11:04.752Z,101260.61
2018-07-20T11:13:32.396Z,101263.55
2018-07-20T11:16:01.284Z,101261.48
2018-07-20T11:18:29.070Z,101263.50
2018-07-20T11:20:57.253Z,101256.02
2018-07-20T11:23:25.113Z,101254.55
2018-07-20T11:25:52.986Z,101246.48
2018-07-20T11:28:20.649Z,101249.55
2018-07-20T11:30:48.459Z,101254.33
2018-07-20T11:33:16.406Z,101246.41
2018-07-20T11:35:44.143Z,101245.44
2018-07-20T11:38:12.109Z,101243.26
2018-07-20T11:40:39.896Z,101245.58
2018-07-20T11:43:07.689Z,101238.98
2018-07-20T11:45:35.585Z,101241.28
2018-07-20T11:48:03.461Z,101235.58
2018-07-20T11:50:31.220Z,101236.20
2018-07-20T11:52:58.980Z,101243.72
2018-07-20T11:55:26.910Z,101237.64
2018-07-20T11:57:54.607Z,101242.19
2018-07-20T12:00:22.475Z,101239.07
2018-07-20T12:02:50.171Z,101238.40
2018-07-20T12:05:17.837Z,101240.02
2018-07-20T12:07:45.604Z,101237.92
2018-07-20T12:10:13.412Z,101240.70
2018-07-20T12:12:41.114Z,101238.64
2018-07-20T12:15:08.800Z,101237.88
2018-07-20T12:17:36.699Z,101240.47
2018-07-20T12:20:04.349Z,101237.23
2018-07-20T12:22:32.212Z,101231.93
2018-07-20T12:25:00.123Z,101235.26
2018-07-20T12:27:27.702Z,101234.48
2018-07-20T12:29:55.668Z,101236.21
2018-07-20T12:32:23.558Z,101229.09
2018-07-20T12:34:51.158Z,101234.73
2018-07-20T12:37:19.010Z,101230.05
2018-07-20T12:39:46.832Z,101234.73
2018-07-20T12:42:14.429Z,101238.30
2018-07-20T12:44:42.214Z,101238.88
2018-07-20T12:47:10.041Z,101239.45
2018-07-20T12:49:37.629Z,101236.25
2018-07-20T12:52:05.355Z,101231.64
2018-07-20T12:54:33.234Z,101238.70
2018-07-20T12:57:00.751Z,101228.31
2018-07-20T12:59:28.812Z,101228.89
2018-07-20T13:01:57.021Z,101224.34
2018-07-20T13:04:24.666Z,101217.18
2018-07-20T13:06:53.170Z,101210.81
2018-07-20T13:09:20.767Z,101218.27
2018-07-20T13:11:48.998Z,101211.34
2018-07-20T13:14:17.715Z,101202.80
2018-07-20T13:16:45.277Z,101203.33
2018-07-20T13:19:12.901Z,101199.87
2018-07-20T13:21:40.142Z,101197.61
2018-07-20T13:24:07.431Z,101197.16
2018-07-20T13:26:34.440Z,101202.64
2018-07-20T13:29:01.573Z,101198.03
2018-07-20T13:31:28.548Z,101191.11
2018-07-20T13:33:55.640Z,101198.80
2018-07-20T13:36:22.949Z,101195.14
2018-07-20T13:38:50.128Z,101191.83
2018-07-20T13:41:17.091Z,101190.74
2018-07-20T13:43:44.440Z,101191.59
2018-07-20T13:46:11.333Z,101188.25
2018-07-20T13:48:38.305Z,101189.31
2018-07-20T13:51:05.782Z,101178.94
2018-07-20T13:53:32.734Z,101187.25
2018-07-20T13:55:59.657Z,101176.92
2018-07-20T13:58:26.938Z,101178.83
2018-07-20T14:00:53.931Z,101174.80
2018-07-20T14:03:20.906Z,101175.03
2018-07-20T14:05:48.498Z,101178.77
2018-07-20T14:08:15.503Z,101172.16
2018-07-20T14:10:42.422Z,101171.34
2018-07-20T14:13:09.591Z,101169.14
2018-07-20T14:15:36.613Z,101167.72
2018-07-20T14:18:03.671Z,101171.92
2018-07-20T14:20:30.840Z,101166.57
2018-07-20T14:22:57.877Z,101168.64
2018-07-20T14:25:25.067Z,101171.00
2018-07-20T14:27:52.164Z,101174.66
2018-07-20T14:30:19.167Z,101173.34
2018-07-20T14:32:46.110Z,101176.55
2018-07-20T14:35:13.395Z,101169.77
2018-07-20T14:37:40.412Z,101169.05
2018-07-20T14:40:07.947Z,101171.20
2018-07-20T14:42:35.319Z,101171.50
2018-07-20T14:45:03.404Z,101170.16
2018-07-20T14:47:30.364Z,101173.56
2018-07-20T14:49:57.774Z,101164.43
2018-07-20T14:52:24.728Z,101163.27
2018-07-20T14:54:51.730Z,101171.52
2018-07-20T14:57:19.068Z,101157.94
2018-07-20T14:59:46.055Z,101166.86
2018-07-20T15:02:12.964Z,101159.44
2018-07-20T15:04:40.491Z,101146.50
2018-07-20T15:07:07.443Z,101159.75
2018-07-20T15:09:34.434Z,101154.02
2018-07-20T15:12:01.719Z,101156.76
2018-07-20T15:14:28.701Z,101152.09
2018-07-20T15:16:55.806Z,101147.08
2018-07-20T15:19:23.291Z,101152.05
2018-07-20T15:21:50.302Z,101145.14
2018-07-20T15:24:17.270Z,101144.09
2018-07-20T15:26:44.690Z,101147.64
2018-07-20T15:29:11.611Z,101151.56
2018-07-20T15:31:38.580Z,101143.08
2018-07-20T15:34:06.369Z,101142.84
2018-07-20T15:36:33.962Z,101145.38
2018-07-20T15:39:01.005Z,101142.70
2018-07-20T15:41:28.314Z,101145.73
2018-07-20T15:43:55.331Z,101141.87
2018-07-20T15:46:22.430Z,101142.19
2018-07-20T15:48:49.828Z,101149.47
2018-07-20T15:51:16.861Z,101145.24
2018-07-20T15:53:43.847Z,101139.30
2018-07-20T15:56:11.128Z,101136.75
2018-07-20T15:58:38.150Z,101137.16
2018-07-20T16:01:05.096Z,101140.62
2018-07-20T16:03:32.360Z,101131.76
2018-07-20T16:05:59.381Z,101131.95
2018-07-20T16:08:26.348Z,101125.60
2018-07-20T16:10:53.640Z,101126.12
2018-07-20T16:13:20.605Z,101111.91
2018-07-20T16:15:47.530Z,101127.90
2018-07-20T16:18:14.845Z,101127.04
2018-07-20T16:20:41.801Z,101129.27
2018-07-20T16:23:08.774Z,101124.84
2018-07-20T16:25:36.115Z,101122.30
2018-07-20T16:28:03.258Z,101121.44
2018-07-20T16:30:30.293Z,101118.89
2018-07-20T16:32:57.767Z,101117.72
2018-07-20T16:35:24.745Z,101110.19
2018-07-20T16:37:51.704Z,101113.90
2018-07-20T16:40:18.878Z,101110.49
2018-07-20T16:42:45.803Z,101113.45
2018-07-20T16:45:12.715Z,101112.28
2018-07-20T16:47:40.186Z,101116.26
2018-07-20T16:50:07.202Z,101101.50
2018-07-20T16:52:34.137Z,101110.82
2018-07-20T16:55:01.602Z,101117.07
2018-07-20T16:57:28.564Z,101120.54
2018-07-20T16:59:55.507Z,101117.02
2018-07-20T17:02:22.701Z,101116.36
2018-07-20T17:04:49.679Z,101118.14
2018-07-20T17:07:16.658Z,101120.23
2018-07-20T17:09:44.408Z,101111.87
2018-07-20T17:12:11.376Z,101112.08
2018-07-20T17:14:38.357Z,101115.03
2018-07-20T17:17:05.782Z,101114.58
2018-07-20T17:19:32.714Z,101113.41
2018-07-20T17:21:59.709Z,101116.04
2018-07-20T17:24:26.901Z,101120.05
2018-07-20T17:26:53.885Z,101114.81
2018-07-20T17:29:21.347Z,101113.33
2018-07-20T17:31:48.767Z,101115.41
2018-07-20T17:34:15.742Z,101110.84
2018-07-20T17:36:42.810Z,101109.55
2018-07-20T17:39:11.601Z,101110.27
2018-07-20T17:41:38.604Z,101109.25
2018-07-20T17:44:05.775Z,101104.16
2018-07-20T17:46:33.180Z,101103.19
2018-07-20T17:49:00.172Z,101107.70
2018-07-20T17:51:27.184Z,101102.09
2018-07-20T17:53:54.461Z,101105.24
2018-07-20T17:56:21.509Z,101094.48
2018-07-20T17:58:48.473Z,101103.34
2018-07-20T18:01:16.117Z,101106.16
2018-07-20T18:03:43.058Z,101104.87
2018-07-20T18:06:10.039Z,101101.67
2018-07-20T18:08:37.340Z,101102.77
2018-07-20T18:11:05.143Z,101098.73
2018-07-20T18:13:32.109Z,101100.50
2018-07-20T18:15:59.271Z,101097.80
2018-07-20T18:18:26.280Z,101100.42
2018-07-20T18:20:53.245Z,101099.92
2018-07-20T18:23:20.761Z,101104.44
2018-07-20T18:25:47.790Z,101103.80
2018-07-20T18:28:14.726Z,101105.22
2018-07-20T18:30:42.128Z,101103.92
2018-07-20T18:33:09.157Z,101104.81
2018-07-20T18:35:36.120Z,101107.13
2018-07-20T18:38:03.520Z,101111.27
2018-07-20T18:40:30.494Z,101106.69
2018-07-20T18:42:57.434Z,101108.84
2018-07-20T18:45:24.921Z,101105.84
2018-07-20T18:47:51.891Z,101104.20
2018-07-20T18:50:18.859Z,101102.03
2018-07-20T18:52:46.214Z,101100.38
2018-07-20T18:55:13.179Z,101100.77
2018-07-20T18:57:40.133Z,101101.81
2018-07-20T19:00:07.499Z,101096.59
2018-07-20T19:02:34.421Z,101102.65
2018-07-20T19:05:01.416Z,101101.53
2018-07-20T19:07:28.723Z,101103.12
2018-07-20T19:09:55.747Z,101103.38
2018-07-20T19:12:22.717Z,101095.56
2018-07-20T19:14:50.340Z,101096.01
2018-07-20T19:17:17.304Z,101098.13
2018-07-20T19:19:44.257Z,101100.58
2018-07-20T19:22:11.556Z,101099.64
2018-07-20T19:24:38.513Z,101097.63
2018-07-20T19:27:05.842Z,101104.67
2018-07-20T19:29:33.300Z,101106.79
2018-07-20T19:32:00.620Z,101104.80
2018-07-20T19:34:27.574Z,101110.00
2018-07-20T19:36:54.776Z,101107.98
2018-07-20T19:39:21.730Z,101110.09
2018-07-20T19:41:48.677Z,101108.77
2018-07-20T19:44:16.177Z,101113.61
2018-07-20T19:46:43.135Z,101097.09
2018-07-20T19:49:10.131Z,101106.48
2018-07-20T19:51:37.350Z,101104.39
2018-07-20T19:54:04.505Z,101114.61
2018-07-20T19:56:31.494Z,101108.67
2018-07-20T19:58:58.909Z,101108.36
2018-07-20T20:01:25.878Z,101109.23
2018-07-20T20:03:52.824Z,101105.68
2018-07-20T20:06:20.188Z,101107.09
2018-07-20T20:08:47.154Z,101110.87
2018-07-20T20:11:14.140Z,101114.47
2018-07-20T20:13:41.477Z,101113.64
2018-07-20T20:16:08.453Z,101115.55
2018-07-20T20:18:35.489Z,101106.52
2018-07-20T20:21:02.723Z,101107.42
2018-07-20T20:23:29.692Z,101105.73
2018-07-20T20:25:56.683Z,101100.95
2018-07-20T20:28:23.915Z,101103.36
2018-07-20T20:30:50.899Z,101094.34
2018-07-20T20:33:17.985Z,101093.69
2018-07-20T20:35:45.398Z,101099.69
2018-07-20T20:38:12.352Z,101106.55
2018-07-20T20:40:39.337Z,101105.35
2018-07-20T20:43:06.643Z,101107.42
2018-07-20T20:45:33.624Z,101102.17
2018-07-20T20:48:00.550Z,101101.66
2018-07-20T20:50:27.900Z,101103.05
2018-07-20T20:52:54.862Z,101100.16
2018-07-20T20:55:21.788Z,101101.36
2018-07-20T20:57:49.079Z,101102.05
2018-07-20T21:00:16.118Z,101097.08
2018-07-20T21:02:43.111Z,101089.95
2018-07-20T21:05:10.403Z,101090.11
2018-07-20T21:07:37.415Z,101090.30
2018-07-20T21:10:04.463Z,101091.33
2018-07-20T21:12:31.976Z,101085.70
2018-07-20T21:14:58.963Z,101085.03
2018-07-20T21:17:25.911Z,101081.63
2018-07-20T21:19:53.510Z,101087.78
2018-07-20T21:22:20.537Z,101086.27
2018-07-20T21:24:47.548Z,101085.25
2018-07-20T21:27:14.997Z,101076.36
2018-07-20T21:29:42.010Z,101080.94
2018-07-20T21:32:08.998Z,101071.24
2018-07-20T21:34:36.801Z,101072.59
2018-07-20T21:37:03.853Z,101070.38
2018-07-20T21:39:30.850Z,101070.55
2018-07-20T21:41:58.324Z,101067.30
2018-07-20T21:44:25.267Z,101068.31
2018-07-20T21:46:52.263Z,101066.63
2018-07-20T21:49:19.590Z,101067.97
2018-07-20T21:51:47.137Z,101063.55
2018-07-20T21:54:14.118Z,101060.47
2018-07-20T21:56:41.713Z,101060.97
2018-07-20T21:59:08.702Z,101052.11
2018-07-20T22:01:35.761Z,101052.09
2018-07-20T22:04:03.042Z,101042.19
2018-07-20T22:06:30.060Z,101043.35
2018-07-20T22:08:57.002Z,101038.41
2018-07-20T22:11:24.605Z,101036.19
2018-07-20T22:13:51.562Z,101037.55
2018-07-20T22:16:18.557Z,101030.88
2018-07-20T22:18:45.950Z,101031.38
2018-07-20T22:21:12.985Z,101031.71
2018-07-20T22:23:40.056Z,101027.63
2018-07-20T22:26:07.293Z,101027.63
2018-07-20T22:28:34.312Z,101034.76
2018-07-20T22:31:01.265Z,101027.59
2018-07-20T22:33:28.735Z,101021.78
2018-07-20T22:35:55.897Z,101022.97
2018-07-20T22:38:22.884Z,101020.73
2018-07-20T22:40:50.179Z,101016.63
2018-07-20T22:43:17.165Z,101017.11
2018-07-20T22:45:44.106Z,101017.57
2018-07-20T22:48:11.576Z,101013.98
2018-07-20T22:50:38.560Z,101020.28
2018-07-20T22:53:05.546Z,101020.60
2018-07-20T22:55:33.033Z,101017.84
2018-07-20T22:58:00.092Z,101022.41
2018-07-20T23:00:27.097Z,101019.84
2018-07-20T23:02:54.427Z,101025.28
2018-07-20T23:05:21.400Z,101023.72
2018-07-20T23:07:48.364Z,101024.20
2018-07-20T23:10:15.899Z,101025.38
2018-07-20T23:12:42.983Z,101025.87
2018-07-20T23:15:09.987Z,101021.09
2018-07-20T23:17:37.401Z,101020.20
2018-07-20T23:20:04.336Z,101014.53
2018-07-20T23:22:31.355Z,101020.15
2018-07-20T23:24:58.860Z,101019.11
2018-07-20T23:27:25.901Z,101014.36
2018-07-20T23:29:52.880Z,101014.67
2018-07-20T23:32:20.382Z,101009.89
2018-07-20T23:34:47.307Z,101003.09
2018-07-20T23:37:14.494Z,101006.13
2018-07-20T23:39:41.891Z,101001.34
2018-07-20T23:42:08.855Z,100997.55
2018-07-20T23:44:35.857Z,101000.59
2018-07-20T23:47:03.346Z,100987.48
2018-07-20T23:49:30.314Z,100988.12
2018-07-20T23:51:57.319Z,100980.30
2018-07-20T23:54:24.605Z,100977.41
2018-07-20T23:56:51.572Z,100984.69
2018-07-20T23:59:18.594Z,100980.59
